sensor_id;sensor_type;location;lat;lon;timestamp;P1;durP1;ratioP1;P2;durP2;ratioP2
17917;SDS011;9084;50.956;3.106;2023-02-24T00:01:21;8.87;;;1.63;;
17917;SDS011;9084;50.956;3.106;2023-02-24T00:03:52;6.80;;;1.70;;
17917;SDS011;9084;50.956;3.106;2023-02-24T00:06:20;7.80;;;1.77;;
17917;SDS011;9084;50.956;3.106;2023-02-24T00:08:47;9.80;;;2.47;;
17917;SDS011;9084;50.956;3.106;2023-02-24T00:11:13;5.93;;;1.87;;
17917;SDS011;9084;50.956;3.106;2023-02-24T00:13:41;9.67;;;2.87;;
17917;SDS011;9084;50.956;3.106;2023-02-24T00:16:12;9.40;;;2.70;;
17917;SDS011;9084;50.956;3.106;2023-02-24T00:18:42;9.27;;;2.03;;
17917;SDS011;9084;50.956;3.106;2023-02-24T00:21:09;7.73;;;2.97;;
17917;SDS011;9084;50.956;3.106;2023-02-24T00:23:38;7.00;;;1.93;;
17917;SDS011;9084;50.956;3.106;2023-02-24T00:26:05;7.40;;;2.37;;
17917;SDS011;9084;50.956;3.106;2023-02-24T00:28:33;6.10;;;2.20;;
17917;SDS011;9084;50.956;3.106;2023-02-24T00:31:06;9.93;;;1.80;;
17917;SDS011;9084;50.956;3.106;2023-02-24T00:33:42;6.60;;;2.20;;
17917;SDS011;9084;50.956;3.106;2023-02-24T00:36:13;7.43;;;1.93;;
17917;SDS011;9084;50.956;3.106;2023-02-24T00:38:48;6.10;;;2.07;;
17917;SDS011;9084;50.956;3.106;2023-02-24T00:41:44;5.43;;;1.73;;
17917;SDS011;9084;50.956;3.106;2023-02-24T00:44:13;8.50;;;2.30;;
17917;SDS011;9084;50.956;3.106;2023-02-24T00:46:39;8.27;;;2.57;;
17917;SDS011;9084;50.956;3.106;2023-02-24T00:49:13;8.47;;;1.67;;
17917;SDS011;9084;50.956;3.106;2023-02-24T00:51:45;7.87;;;1.80;;
17917;SDS011;9084;50.956;3.106;2023-02-24T00:54:12;10.23;;;1.70;;
17917;SDS011;9084;50.956;3.106;2023-02-24T00:56:40;7.83;;;2.20;;
17917;SDS011;9084;50.956;3.106;2023-02-24T00:59:08;8.70;;;2.17;;
17917;SDS011;9084;50.956;3.106;2023-02-24T01:01:35;9.07;;;1.70;;
17917;SDS011;9084;50.956;3.106;2023-02-24T01:04:04;4.07;;;1.30;;
17917;SDS011;9084;50.956;3.106;2023-02-24T01:06:38;7.47;;;1.53;;
17917;SDS011;9084;50.956;3.106;2023-02-24T01:09:06;10.03;;;1.27;;
17917;SDS011;9084;50.956;3.106;2023-02-24T01:11:33;9.80;;;1.73;;
17917;SDS011;9084;50.956;3.106;2023-02-24T01:14:20;5.60;;;1.87;;
17917;SDS011;9084;50.956;3.106;2023-02-24T01:16:47;6.83;;;1.80;;
17917;SDS011;9084;50.956;3.106;2023-02-24T01:19:24;7.30;;;1.40;;
17917;SDS011;9084;50.956;3.106;2023-02-24T01:21:56;5.87;;;1.50;;
17917;SDS011;9084;50.956;3.106;2023-02-24T01:24:23;4.93;;;1.20;;
17917;SDS011;9084;50.956;3.106;2023-02-24T01:26:52;9.93;;;2.57;;
17917;SDS011;9084;50.956;3.106;2023-02-24T01:29:18;6.63;;;1.97;;
17917;SDS011;9084;50.956;3.106;2023-02-24T01:31:48;6.43;;;1.70;;
17917;SDS011;9084;50.956;3.106;2023-02-24T01:34:18;7.03;;;1.27;;
17917;SDS011;9084;50.956;3.106;2023-02-24T01:36:43;8.07;;;1.73;;
17917;SDS011;9084;50.956;3.106;2023-02-24T01:39:09;5.13;;;1.40;;
17917;SDS011;9084;50.956;3.106;2023-02-24T01:41:37;6.20;;;1.50;;
17917;SDS011;9084;50.956;3.106;2023-02-24T01:46:38;8.40;;;2.43;;
17917;SDS011;9084;50.956;3.106;2023-02-24T01:51:51;7.57;;;2.13;;
17917;SDS011;9084;50.956;3.106;2023-02-24T01:54:27;4.87;;;1.63;;
17917;SDS011;9084;50.956;3.106;2023-02-24T01:57:03;3.27;;;1.10;;
17917;SDS011;9084;50.956;3.106;2023-02-24T01:59:32;4.87;;;1.37;;
17917;SDS011;9084;50.956;3.106;2023-02-24T02:02:00;4.87;;;1.93;;
17917;SDS011;9084;50.956;3.106;2023-02-24T02:07:07;6.93;;;2.07;;
17917;SDS011;9084;50.956;3.106;2023-02-24T02:09:38;6.10;;;1.50;;
17917;SDS011;9084;50.956;3.106;2023-02-24T02:12:07;4.73;;;1.20;;
17917;SDS011;9084;50.956;3.106;2023-02-24T02:14:34;4.47;;;1.20;;
17917;SDS011;9084;50.956;3.106;2023-02-24T02:31:16;5.43;;;1.57;;
17917;SDS011;9084;50.956;3.106;2023-02-24T02:42:34;4.70;;;1.60;;
17917;SDS011;9084;50.956;3.106;2023-02-24T02:45:33;5.33;;;1.87;;
17917;SDS011;9084;50.956;3.106;2023-02-24T02:50:40;6.87;;;1.60;;
17917;SDS011;9084;50.956;3.106;2023-02-24T02:53:27;14.10;;;6.47;;
17917;SDS011;9084;50.956;3.106;2023-02-24T02:56:16;33.57;;;15.23;;
17917;SDS011;9084;50.956;3.106;2023-02-24T02:58:50;22.50;;;12.90;;
17917;SDS011;9084;50.956;3.106;2023-02-24T03:01:20;24.93;;;13.13;;
17917;SDS011;9084;50.956;3.106;2023-02-24T03:03:53;18.13;;;8.60;;
17917;SDS011;9084;50.956;3.106;2023-02-24T03:06:26;15.77;;;6.23;;
17917;SDS011;9084;50.956;3.106;2023-02-24T03:08:59;9.63;;;3.80;;
17917;SDS011;9084;50.956;3.106;2023-02-24T03:11:35;8.97;;;3.10;;
17917;SDS011;9084;50.956;3.106;2023-02-24T03:14:05;6.53;;;2.80;;
17917;SDS011;9084;50.956;3.106;2023-02-24T03:16:37;8.30;;;2.47;;
17917;SDS011;9084;50.956;3.106;2023-02-24T03:19:10;9.10;;;2.23;;
17917;SDS011;9084;50.956;3.106;2023-02-24T03:21:43;4.87;;;1.53;;
17917;SDS011;9084;50.956;3.106;2023-02-24T03:24:12;6.83;;;2.40;;
17917;SDS011;9084;50.956;3.106;2023-02-24T03:26:44;5.73;;;2.20;;
17917;SDS011;9084;50.956;3.106;2023-02-24T03:31:52;7.87;;;2.57;;
17917;SDS011;9084;50.956;3.106;2023-02-24T03:35:10;4.83;;;1.90;;
17917;SDS011;9084;50.956;3.106;2023-02-24T03:37:22;8.07;;;2.70;;
17917;SDS011;9084;50.956;3.106;2023-02-24T03:39:56;8.80;;;2.60;;
17917;SDS011;9084;50.956;3.106;2023-02-24T03:42:24;7.47;;;2.03;;
17917;SDS011;9084;50.956;3.106;2023-02-24T03:44:54;4.47;;;1.77;;
17917;SDS011;9084;50.956;3.106;2023-02-24T03:47:22;8.70;;;2.17;;
17917;SDS011;9084;50.956;3.106;2023-02-24T03:49:49;5.07;;;1.90;;
17917;SDS011;9084;50.956;3.106;2023-02-24T03:57:46;5.40;;;1.73;;
17917;SDS011;9084;50.956;3.106;2023-02-24T04:03:12;5.37;;;1.83;;
17917;SDS011;9084;50.956;3.106;2023-02-24T04:11:32;9.57;;;2.20;;
17917;SDS011;9084;50.956;3.106;2023-02-24T04:19:25;4.97;;;1.83;;
17917;SDS011;9084;50.956;3.106;2023-02-24T04:21:53;5.83;;;2.13;;
17917;SDS011;9084;50.956;3.106;2023-02-24T04:24:21;7.30;;;1.67;;
17917;SDS011;9084;50.956;3.106;2023-02-24T04:26:51;6.20;;;1.93;;
17917;SDS011;9084;50.956;3.106;2023-02-24T04:29:22;7.43;;;1.90;;
17917;SDS011;9084;50.956;3.106;2023-02-24T04:32:00;6.17;;;2.00;;
17917;SDS011;9084;50.956;3.106;2023-02-24T04:34:33;5.13;;;2.13;;
17917;SDS011;9084;50.956;3.106;2023-02-24T04:37:04;8.53;;;2.27;;
17917;SDS011;9084;50.956;3.106;2023-02-24T04:39:30;8.77;;;2.00;;
17917;SDS011;9084;50.956;3.106;2023-02-24T04:42:02;8.70;;;2.40;;
17917;SDS011;9084;50.956;3.106;2023-02-24T04:44:31;5.03;;;1.63;;
17917;SDS011;9084;50.956;3.106;2023-02-24T04:46:58;4.03;;;1.80;;
17917;SDS011;9084;50.956;3.106;2023-02-24T04:49:24;6.47;;;1.60;;
17917;SDS011;9084;50.956;3.106;2023-02-24T04:51:51;4.57;;;1.60;;
17917;SDS011;9084;50.956;3.106;2023-02-24T04:54:21;8.50;;;2.47;;
17917;SDS011;9084;50.956;3.106;2023-02-24T04:56:48;6.73;;;1.73;;
17917;SDS011;9084;50.956;3.106;2023-02-24T04:59:21;8.00;;;1.77;;
17917;SDS011;9084;50.956;3.106;2023-02-24T05:01:48;6.37;;;2.30;;
17917;SDS011;9084;50.956;3.106;2023-02-24T05:04:19;4.00;;;2.00;;
17917;SDS011;9084;50.956;3.106;2023-02-24T05:06:44;9.57;;;1.90;;
17917;SDS011;9084;50.956;3.106;2023-02-24T05:09:11;6.43;;;2.03;;
17917;SDS011;9084;50.956;3.106;2023-02-24T05:11:43;6.10;;;1.83;;
17917;SDS011;9084;50.956;3.106;2023-02-24T05:14:13;8.63;;;2.43;;
17917;SDS011;9084;50.956;3.106;2023-02-24T05:16:43;9.90;;;1.97;;
17917;SDS011;9084;50.956;3.106;2023-02-24T05:19:14;7.00;;;1.60;;
17917;SDS011;9084;50.956;3.106;2023-02-24T05:21:59;6.30;;;2.07;;
17917;SDS011;9084;50.956;3.106;2023-02-24T05:24:27;6.43;;;2.20;;
17917;SDS011;9084;50.956;3.106;2023-02-24T05:26:54;8.00;;;1.87;;
17917;SDS011;9084;50.956;3.106;2023-02-24T05:29:27;5.30;;;2.17;;
17917;SDS011;9084;50.956;3.106;2023-02-24T05:31:55;6.53;;;2.20;;
17917;SDS011;9084;50.956;3.106;2023-02-24T05:34:28;3.20;;;1.30;;
17917;SDS011;9084;50.956;3.106;2023-02-24T05:36:55;6.17;;;1.80;;
17917;SDS011;9084;50.956;3.106;2023-02-24T05:39:21;8.17;;;2.40;;
17917;SDS011;9084;50.956;3.106;2023-02-24T05:41:53;6.40;;;2.17;;
17917;SDS011;9084;50.956;3.106;2023-02-24T05:44:21;8.50;;;2.50;;
17917;SDS011;9084;50.956;3.106;2023-02-24T05:46:50;9.97;;;2.67;;
17917;SDS011;9084;50.956;3.106;2023-02-24T05:49:25;4.97;;;2.10;;
17917;SDS011;9084;50.956;3.106;2023-02-24T05:51:55;6.57;;;1.90;;
17917;SDS011;9084;50.956;3.106;2023-02-24T05:54:25;8.90;;;2.00;;
17917;SDS011;9084;50.956;3.106;2023-02-24T05:57:00;5.93;;;1.93;;
17917;SDS011;9084;50.956;3.106;2023-02-24T05:59:31;7.87;;;2.00;;
17917;SDS011;9084;50.956;3.106;2023-02-24T06:01:59;7.50;;;2.43;;
17917;SDS011;9084;50.956;3.106;2023-02-24T06:04:31;11.07;;;2.83;;
17917;SDS011;9084;50.956;3.106;2023-02-24T06:07:09;11.33;;;2.33;;
17917;SDS011;9084;50.956;3.106;2023-02-24T06:09:48;7.73;;;2.00;;
17917;SDS011;9084;50.956;3.106;2023-02-24T06:12:17;8.87;;;2.10;;
17917;SDS011;9084;50.956;3.106;2023-02-24T06:14:44;4.30;;;2.10;;
17917;SDS011;9084;50.956;3.106;2023-02-24T06:17:11;4.70;;;2.27;;
17917;SDS011;9084;50.956;3.106;2023-02-24T06:19:39;8.90;;;2.00;;
17917;SDS011;9084;50.956;3.106;2023-02-24T06:22:05;8.93;;;2.03;;
17917;SDS011;9084;50.956;3.106;2023-02-24T06:24:35;4.77;;;2.07;;
17917;SDS011;9084;50.956;3.106;2023-02-24T06:27:03;8.60;;;2.63;;
17917;SDS011;9084;50.956;3.106;2023-02-24T06:29:34;6.97;;;2.43;;
17917;SDS011;9084;50.956;3.106;2023-02-24T06:32:03;8.97;;;2.87;;
17917;SDS011;9084;50.956;3.106;2023-02-24T06:34:35;12.37;;;3.17;;
17917;SDS011;9084;50.956;3.106;2023-02-24T06:37:05;9.00;;;2.83;;
17917;SDS011;9084;50.956;3.106;2023-02-24T06:39:32;7.27;;;2.80;;
17917;SDS011;9084;50.956;3.106;2023-02-24T06:41:59;8.90;;;2.40;;
17917;SDS011;9084;50.956;3.106;2023-02-24T06:44:32;5.97;;;2.53;;
17917;SDS011;9084;50.956;3.106;2023-02-24T06:47:02;5.87;;;2.67;;
17917;SDS011;9084;50.956;3.106;2023-02-24T06:49:30;7.43;;;2.37;;
17917;SDS011;9084;50.956;3.106;2023-02-24T06:51:58;8.27;;;2.60;;
17917;SDS011;9084;50.956;3.106;2023-02-24T06:54:24;21.43;;;16.50;;
17917;SDS011;9084;50.956;3.106;2023-02-24T06:56:53;29.13;;;19.70;;
17917;SDS011;9084;50.956;3.106;2023-02-24T06:59:19;21.57;;;16.23;;
17917;SDS011;9084;50.956;3.106;2023-02-24T07:01:52;10.70;;;4.20;;
17917;SDS011;9084;50.956;3.106;2023-02-24T07:04:19;6.67;;;2.77;;
17917;SDS011;9084;50.956;3.106;2023-02-24T07:06:55;4.97;;;2.93;;
17917;SDS011;9084;50.956;3.106;2023-02-24T07:09:23;10.67;;;3.40;;
17917;SDS011;9084;50.956;3.106;2023-02-24T07:11:54;11.37;;;4.20;;
17917;SDS011;9084;50.956;3.106;2023-02-24T07:14:26;7.73;;;2.83;;
17917;SDS011;9084;50.956;3.106;2023-02-24T07:16:56;7.43;;;2.73;;
17917;SDS011;9084;50.956;3.106;2023-02-24T07:19:25;6.23;;;2.37;;
17917;SDS011;9084;50.956;3.106;2023-02-24T07:21:56;12.13;;;2.30;;
17917;SDS011;9084;50.956;3.106;2023-02-24T07:24:24;9.80;;;2.23;;
17917;SDS011;9084;50.956;3.106;2023-02-24T07:27:01;10.43;;;2.20;;
17917;SDS011;9084;50.956;3.106;2023-02-24T07:29:31;4.17;;;2.03;;
17917;SDS011;9084;50.956;3.106;2023-02-24T07:31:58;7.17;;;2.77;;
17917;SDS011;9084;50.956;3.106;2023-02-24T07:34:27;7.80;;;2.13;;
17917;SDS011;9084;50.956;3.106;2023-02-24T07:36:57;7.07;;;2.80;;
17917;SDS011;9084;50.956;3.106;2023-02-24T07:39:26;8.67;;;3.13;;
17917;SDS011;9084;50.956;3.106;2023-02-24T07:41:54;8.43;;;2.50;;
17917;SDS011;9084;50.956;3.106;2023-02-24T07:44:21;8.73;;;3.37;;
17917;SDS011;9084;50.956;3.106;2023-02-24T07:46:48;6.27;;;2.30;;
17917;SDS011;9084;50.956;3.106;2023-02-24T07:49:18;7.50;;;2.63;;
17917;SDS011;9084;50.956;3.106;2023-02-24T07:51:46;9.33;;;2.83;;
17917;SDS011;9084;50.956;3.106;2023-02-24T07:54:16;6.33;;;2.60;;
17917;SDS011;9084;50.956;3.106;2023-02-24T07:56:45;8.00;;;2.60;;
17917;SDS011;9084;50.956;3.106;2023-02-24T07:59:20;4.87;;;1.87;;
17917;SDS011;9084;50.956;3.106;2023-02-24T08:01:51;5.67;;;2.60;;
17917;SDS011;9084;50.956;3.106;2023-02-24T08:04:20;8.43;;;2.33;;
17917;SDS011;9084;50.956;3.106;2023-02-24T08:06:49;6.43;;;2.23;;
17917;SDS011;9084;50.956;3.106;2023-02-24T08:09:20;4.77;;;2.07;;
17917;SDS011;9084;50.956;3.106;2023-02-24T08:12:09;8.70;;;1.93;;
17917;SDS011;9084;50.956;3.106;2023-02-24T08:14:36;6.03;;;1.60;;
17917;SDS011;9084;50.956;3.106;2023-02-24T08:17:09;5.10;;;1.57;;
17917;SDS011;9084;50.956;3.106;2023-02-24T08:19:36;5.17;;;1.90;;
17917;SDS011;9084;50.956;3.106;2023-02-24T08:22:06;6.07;;;1.83;;
17917;SDS011;9084;50.956;3.106;2023-02-24T08:24:54;5.70;;;1.73;;
17917;SDS011;9084;50.956;3.106;2023-02-24T08:27:27;5.80;;;2.10;;
17917;SDS011;9084;50.956;3.106;2023-02-24T08:29:57;8.50;;;2.17;;
17917;SDS011;9084;50.956;3.106;2023-02-24T08:32:37;6.27;;;1.97;;
17917;SDS011;9084;50.956;3.106;2023-02-24T08:35:14;7.50;;;2.77;;
17917;SDS011;9084;50.956;3.106;2023-02-24T08:40:12;8.50;;;3.57;;
17917;SDS011;9084;50.956;3.106;2023-02-24T08:43:09;5.90;;;1.83;;
17917;SDS011;9084;50.956;3.106;2023-02-24T08:49:03;4.23;;;1.53;;
17917;SDS011;9084;50.956;3.106;2023-02-24T08:51:35;6.40;;;1.87;;
17917;SDS011;9084;50.956;3.106;2023-02-24T08:54:12;3.77;;;1.80;;
17917;SDS011;9084;50.956;3.106;2023-02-24T08:56:43;5.67;;;1.93;;
17917;SDS011;9084;50.956;3.106;2023-02-24T08:59:14;5.32;;;2.20;;
17917;SDS011;9084;50.956;3.106;2023-02-24T09:02:01;6.07;;;1.80;;
17917;SDS011;9084;50.956;3.106;2023-02-24T09:04:49;6.87;;;2.13;;
17917;SDS011;9084;50.956;3.106;2023-02-24T09:07:21;8.27;;;2.30;;
17917;SDS011;9084;50.956;3.106;2023-02-24T09:09:50;10.37;;;2.70;;
17917;SDS011;9084;50.956;3.106;2023-02-24T09:12:20;7.03;;;1.80;;
17917;SDS011;9084;50.956;3.106;2023-02-24T09:15:02;7.37;;;1.90;;
17917;SDS011;9084;50.956;3.106;2023-02-24T09:17:31;4.27;;;1.50;;
17917;SDS011;9084;50.956;3.106;2023-02-24T09:20:11;6.00;;;2.13;;
17917;SDS011;9084;50.956;3.106;2023-02-24T09:22:57;4.13;;;1.55;;
17917;SDS011;9084;50.956;3.106;2023-02-24T09:25:34;6.45;;;2.90;;
17917;SDS011;9084;50.956;3.106;2023-02-24T09:28:08;4.85;;;1.83;;
17917;SDS011;9084;50.956;3.106;2023-02-24T09:30:42;6.03;;;2.25;;
17917;SDS011;9084;50.956;3.106;2023-02-24T09:35:49;4.63;;;1.70;;
17917;SDS011;9084;50.956;3.106;2023-02-24T09:43:59;4.07;;;2.45;;
17917;SDS011;9084;50.956;3.106;2023-02-24T09:46:33;4.18;;;1.95;;
17917;SDS011;9084;50.956;3.106;2023-02-24T09:49:17;5.22;;;2.25;;
17917;SDS011;9084;50.956;3.106;2023-02-24T09:51:48;4.28;;;2.08;;
17917;SDS011;9084;50.956;3.106;2023-02-24T09:54:27;5.35;;;2.10;;
17917;SDS011;9084;50.956;3.106;2023-02-24T09:57:00;8.18;;;2.30;;
17917;SDS011;9084;50.956;3.106;2023-02-24T09:59:45;9.50;;;3.20;;
17917;SDS011;9084;50.956;3.106;2023-02-24T10:02:50;6.13;;;3.22;;
17917;SDS011;9084;50.956;3.106;2023-02-24T10:05:38;7.75;;;3.40;;
17917;SDS011;9084;50.956;3.106;2023-02-24T10:08:13;6.95;;;2.97;;
17917;SDS011;9084;50.956;3.106;2023-02-24T10:10:49;4.30;;;2.03;;
17917;SDS011;9084;50.956;3.106;2023-02-24T10:13:34;5.73;;;2.70;;
17917;SDS011;9084;50.956;3.106;2023-02-24T10:16:21;6.18;;;2.50;;
17917;SDS011;9084;50.956;3.106;2023-02-24T10:19:04;6.80;;;2.47;;
17917;SDS011;9084;50.956;3.106;2023-02-24T10:27:28;6.10;;;2.20;;
17917;SDS011;9084;50.956;3.106;2023-02-24T10:30:09;5.95;;;2.78;;
17917;SDS011;9084;50.956;3.106;2023-02-24T10:32:59;5.10;;;2.67;;
17917;SDS011;9084;50.956;3.106;2023-02-24T10:35:29;5.70;;;2.55;;
17917;SDS011;9084;50.956;3.106;2023-02-24T10:38:00;6.10;;;2.67;;
17917;SDS011;9084;50.956;3.106;2023-02-24T10:40:33;5.22;;;2.88;;
17917;SDS011;9084;50.956;3.106;2023-02-24T10:43:14;9.88;;;2.72;;
17917;SDS011;9084;50.956;3.106;2023-02-24T10:45:49;5.32;;;2.20;;
17917;SDS011;9084;50.956;3.106;2023-02-24T10:48:24;4.93;;;2.80;;
17917;SDS011;9084;50.956;3.106;2023-02-24T10:50:53;9.93;;;4.03;;
17917;SDS011;9084;50.956;3.106;2023-02-24T10:53:32;8.82;;;5.70;;
17917;SDS011;9084;50.956;3.106;2023-02-24T10:56:04;8.48;;;3.90;;
17917;SDS011;9084;50.956;3.106;2023-02-24T10:59:17;5.28;;;2.85;;
17917;SDS011;9084;50.956;3.106;2023-02-24T11:01:55;6.43;;;3.40;;
17917;SDS011;9084;50.956;3.106;2023-02-24T11:04:51;6.15;;;3.03;;
17917;SDS011;9084;50.956;3.106;2023-02-24T11:07:22;5.53;;;3.33;;
17917;SDS011;9084;50.956;3.106;2023-02-24T11:12:35;4.07;;;2.55;;
17917;SDS011;9084;50.956;3.106;2023-02-24T11:15:27;5.60;;;2.63;;
17917;SDS011;9084;50.956;3.106;2023-02-24T11:18:27;8.68;;;3.42;;
17917;SDS011;9084;50.956;3.106;2023-02-24T11:20:54;4.03;;;1.98;;
17917;SDS011;9084;50.956;3.106;2023-02-24T11:23:29;7.95;;;2.95;;
17917;SDS011;9084;50.956;3.106;2023-02-24T11:26:06;7.85;;;2.92;;
17917;SDS011;9084;50.956;3.106;2023-02-24T11:34:40;7.22;;;2.67;;
17917;SDS011;9084;50.956;3.106;2023-02-24T11:40:25;7.43;;;3.13;;
17917;SDS011;9084;50.956;3.106;2023-02-24T11:56:13;9.25;;;3.70;;
17917;SDS011;9084;50.956;3.106;2023-02-24T11:58:50;4.03;;;2.78;;
17917;SDS011;9084;50.956;3.106;2023-02-24T12:01:23;6.65;;;3.80;;
17917;SDS011;9084;50.956;3.106;2023-02-24T12:04:19;5.00;;;3.50;;
17917;SDS011;9084;50.956;3.106;2023-02-24T12:14:57;12.88;;;5.35;;
17917;SDS011;9084;50.956;3.106;2023-02-24T12:17:34;7.50;;;4.22;;
17917;SDS011;9084;50.956;3.106;2023-02-24T12:20:13;7.32;;;4.03;;
17917;SDS011;9084;50.956;3.106;2023-02-24T12:22:49;9.32;;;4.65;;
17917;SDS011;9084;50.956;3.106;2023-02-24T12:25:52;12.10;;;5.15;;
17917;SDS011;9084;50.956;3.106;2023-02-24T12:31:11;9.65;;;5.53;;
17917;SDS011;9084;50.956;3.106;2023-02-24T12:47:13;7.65;;;3.67;;
17917;SDS011;9084;50.956;3.106;2023-02-24T12:49:46;9.70;;;4.07;;
17917;SDS011;9084;50.956;3.106;2023-02-24T12:55:08;9.55;;;4.75;;
17917;SDS011;9084;50.956;3.106;2023-02-24T13:03:30;7.93;;;4.88;;
17917;SDS011;9084;50.956;3.106;2023-02-24T13:14:44;11.30;;;5.90;;
17917;SDS011;9084;50.956;3.106;2023-02-24T13:19:40;11.07;;;6.32;;
17917;SDS011;9084;50.956;3.106;2023-02-24T13:24:36;10.13;;;6.82;;
17917;SDS011;9084;50.956;3.106;2023-02-24T13:32:34;10.10;;;7.18;;
17917;SDS011;9084;50.956;3.106;2023-02-24T13:35:05;9.98;;;6.38;;
17917;SDS011;9084;50.956;3.106;2023-02-24T13:37:49;10.77;;;6.97;;
17917;SDS011;9084;50.956;3.106;2023-02-24T13:42:56;9.45;;;6.18;;
17917;SDS011;9084;50.956;3.106;2023-02-24T14:01:57;8.02;;;5.57;;
17917;SDS011;9084;50.956;3.106;2023-02-24T14:04:27;6.82;;;5.78;;
17917;SDS011;9084;50.956;3.106;2023-02-24T14:07:00;5.88;;;5.28;;
17917;SDS011;9084;50.956;3.106;2023-02-24T14:09:32;6.03;;;5.43;;
17917;SDS011;9084;50.956;3.106;2023-02-24T14:15:00;5.53;;;5.07;;
17917;SDS011;9084;50.956;3.106;2023-02-24T14:17:34;6.65;;;5.55;;
17917;SDS011;9084;50.956;3.106;2023-02-24T14:22:49;6.10;;;5.35;;
17917;SDS011;9084;50.956;3.106;2023-02-24T14:25:20;6.70;;;5.43;;
17917;SDS011;9084;50.956;3.106;2023-02-24T14:27:48;5.65;;;5.15;;
17917;SDS011;9084;50.956;3.106;2023-02-24T14:30:26;7.88;;;6.32;;
17917;SDS011;9084;50.956;3.106;2023-02-24T14:32:52;8.65;;;6.63;;
17917;SDS011;9084;50.956;3.106;2023-02-24T14:35:20;10.17;;;6.60;;
17917;SDS011;9084;50.956;3.106;2023-02-24T14:37:53;9.95;;;6.50;;
17917;SDS011;9084;50.956;3.106;2023-02-24T14:40:19;8.25;;;6.57;;
17917;SDS011;9084;50.956;3.106;2023-02-24T14:42:49;8.23;;;6.45;;
17917;SDS011;9084;50.956;3.106;2023-02-24T14:45:16;8.10;;;6.35;;
17917;SDS011;9084;50.956;3.106;2023-02-24T14:47:44;8.70;;;6.18;;
17917;SDS011;9084;50.956;3.106;2023-02-24T14:50:17;7.55;;;6.85;;
17917;SDS011;9084;50.956;3.106;2023-02-24T14:52:54;9.35;;;6.97;;
17917;SDS011;9084;50.956;3.106;2023-02-24T14:55:34;11.85;;;5.95;;
17917;SDS011;9084;50.956;3.106;2023-02-24T15:00:52;11.05;;;6.05;;
17917;SDS011;9084;50.956;3.106;2023-02-24T15:03:38;7.70;;;5.35;;
17917;SDS011;9084;50.956;3.106;2023-02-24T15:06:19;10.77;;;5.13;;
17917;SDS011;9084;50.956;3.106;2023-02-24T15:09:01;8.52;;;5.70;;
17917;SDS011;9084;50.956;3.106;2023-02-24T15:11:30;8.60;;;6.20;;
17917;SDS011;9084;50.956;3.106;2023-02-24T15:13:58;8.60;;;5.45;;
17917;SDS011;9084;50.956;3.106;2023-02-24T15:16:43;10.68;;;6.85;;
17917;SDS011;9084;50.956;3.106;2023-02-24T15:21:55;10.38;;;5.45;;
17917;SDS011;9084;50.956;3.106;2023-02-24T15:24:25;12.45;;;5.90;;
17917;SDS011;9084;50.956;3.106;2023-02-24T15:26:59;9.98;;;5.18;;
17917;SDS011;9084;50.956;3.106;2023-02-24T15:29:43;11.25;;;5.22;;
17917;SDS011;9084;50.956;3.106;2023-02-24T15:32:22;11.13;;;5.13;;
17917;SDS011;9084;50.956;3.106;2023-02-24T15:34:51;8.10;;;5.28;;
17917;SDS011;9084;50.956;3.106;2023-02-24T15:37:21;10.23;;;5.03;;
17917;SDS011;9084;50.956;3.106;2023-02-24T15:39:49;11.20;;;5.97;;
17917;SDS011;9084;50.956;3.106;2023-02-24T15:42:23;11.13;;;4.97;;
17917;SDS011;9084;50.956;3.106;2023-02-24T15:44:57;10.18;;;4.90;;
17917;SDS011;9084;50.956;3.106;2023-02-24T15:47:26;11.23;;;4.90;;
17917;SDS011;9084;50.956;3.106;2023-02-24T15:50:04;7.60;;;4.68;;
17917;SDS011;9084;50.956;3.106;2023-02-24T15:52:30;8.63;;;4.95;;
17917;SDS011;9084;50.956;3.106;2023-02-24T15:54:56;10.73;;;5.07;;
17917;SDS011;9084;50.956;3.106;2023-02-24T15:57:24;10.48;;;6.40;;
17917;SDS011;9084;50.956;3.106;2023-02-24T15:59:51;9.77;;;5.93;;
17917;SDS011;9084;50.956;3.106;2023-02-24T16:02:18;12.13;;;5.80;;
17917;SDS011;9084;50.956;3.106;2023-02-24T16:04:48;11.68;;;5.50;;
17917;SDS011;9084;50.956;3.106;2023-02-24T16:07:26;10.98;;;5.50;;
17917;SDS011;9084;50.956;3.106;2023-02-24T16:09:54;11.48;;;5.45;;
17917;SDS011;9084;50.956;3.106;2023-02-24T16:12:23;11.57;;;4.00;;
17917;SDS011;9084;50.956;3.106;2023-02-24T16:14:49;12.60;;;3.90;;
17917;SDS011;9084;50.956;3.106;2023-02-24T16:19:59;12.77;;;3.60;;
17917;SDS011;9084;50.956;3.106;2023-02-24T16:22:26;14.98;;;4.05;;
17917;SDS011;9084;50.956;3.106;2023-02-24T16:24:55;12.40;;;4.10;;
17917;SDS011;9084;50.956;3.106;2023-02-24T16:27:21;15.82;;;5.47;;
17917;SDS011;9084;50.956;3.106;2023-02-24T16:29:47;14.90;;;5.03;;
17917;SDS011;9084;50.956;3.106;2023-02-24T16:32:14;15.13;;;3.75;;
17917;SDS011;9084;50.956;3.106;2023-02-24T16:34:42;11.70;;;3.67;;
17917;SDS011;9084;50.956;3.106;2023-02-24T16:37:14;13.18;;;3.80;;
17917;SDS011;9084;50.956;3.106;2023-02-24T16:39:44;11.15;;;3.75;;
17917;SDS011;9084;50.956;3.106;2023-02-24T16:42:11;9.40;;;3.70;;
17917;SDS011;9084;50.956;3.106;2023-02-24T16:44:37;9.95;;;3.10;;
17917;SDS011;9084;50.956;3.106;2023-02-24T16:47:10;9.00;;;2.60;;
17917;SDS011;9084;50.956;3.106;2023-02-24T16:49:38;7.85;;;2.25;;
17917;SDS011;9084;50.956;3.106;2023-02-24T16:52:06;8.93;;;2.83;;
17917;SDS011;9084;50.956;3.106;2023-02-24T16:54:34;11.38;;;3.63;;
17917;SDS011;9084;50.956;3.106;2023-02-24T16:57:00;8.50;;;2.38;;
17917;SDS011;9084;50.956;3.106;2023-02-24T16:59:25;7.78;;;2.28;;
17917;SDS011;9084;50.956;3.106;2023-02-24T17:01:52;9.85;;;2.25;;
17917;SDS011;9084;50.956;3.106;2023-02-24T17:04:21;11.18;;;2.42;;
17917;SDS011;9084;50.956;3.106;2023-02-24T17:06:50;10.38;;;2.42;;
17917;SDS011;9084;50.956;3.106;2023-02-24T17:09:15;12.88;;;2.25;;
17917;SDS011;9084;50.956;3.106;2023-02-24T17:11:42;5.97;;;1.92;;
17917;SDS011;9084;50.956;3.106;2023-02-24T17:14:18;8.18;;;2.17;;
17917;SDS011;9084;50.956;3.106;2023-02-24T17:16:44;7.47;;;2.60;;
17917;SDS011;9084;50.956;3.106;2023-02-24T17:19:13;12.77;;;3.23;;
17917;SDS011;9084;50.956;3.106;2023-02-24T17:21:40;8.57;;;3.07;;
17917;SDS011;9084;50.956;3.106;2023-02-24T17:24:11;9.40;;;2.00;;
17917;SDS011;9084;50.956;3.106;2023-02-24T17:26:39;8.47;;;2.10;;
17917;SDS011;9084;50.956;3.106;2023-02-24T17:29:07;7.32;;;2.95;;
17917;SDS011;9084;50.956;3.106;2023-02-24T17:31:33;6.90;;;2.37;;
17917;SDS011;9084;50.956;3.106;2023-02-24T17:33:58;12.10;;;3.60;;
17917;SDS011;9084;50.956;3.106;2023-02-24T17:36:28;9.65;;;2.58;;
17917;SDS011;9084;50.956;3.106;2023-02-24T17:38:53;6.77;;;2.47;;
17917;SDS011;9084;50.956;3.106;2023-02-24T17:41:20;12.10;;;2.80;;
17917;SDS011;9084;50.956;3.106;2023-02-24T17:43:49;9.37;;;2.73;;
17917;SDS011;9084;50.956;3.106;2023-02-24T17:46:15;6.90;;;2.33;;
17917;SDS011;9084;50.956;3.106;2023-02-24T17:48:41;7.63;;;1.80;;
17917;SDS011;9084;50.956;3.106;2023-02-24T17:51:08;11.33;;;2.63;;
17917;SDS011;9084;50.956;3.106;2023-02-24T17:53:40;12.13;;;3.63;;
17917;SDS011;9084;50.956;3.106;2023-02-24T17:56:08;7.97;;;3.90;;
17917;SDS011;9084;50.956;3.106;2023-02-24T17:58:36;7.07;;;2.97;;
17917;SDS011;9084;50.956;3.106;2023-02-24T18:01:03;4.13;;;2.30;;
17917;SDS011;9084;50.956;3.106;2023-02-24T18:03:33;9.13;;;2.77;;
17917;SDS011;9084;50.956;3.106;2023-02-24T18:06:10;8.53;;;3.20;;
17917;SDS011;9084;50.956;3.106;2023-02-24T18:08:38;7.77;;;3.80;;
17917;SDS011;9084;50.956;3.106;2023-02-24T18:11:07;7.73;;;3.50;;
17917;SDS011;9084;50.956;3.106;2023-02-24T18:13:37;7.93;;;3.63;;
17917;SDS011;9084;50.956;3.106;2023-02-24T18:16:06;8.57;;;2.63;;
17917;SDS011;9084;50.956;3.106;2023-02-24T18:18:34;10.23;;;2.50;;
17917;SDS011;9084;50.956;3.106;2023-02-24T18:21:02;7.10;;;2.87;;
17917;SDS011;9084;50.956;3.106;2023-02-24T18:23:30;7.80;;;2.50;;
17917;SDS011;9084;50.956;3.106;2023-02-24T18:26:02;10.83;;;3.07;;
17917;SDS011;9084;50.956;3.106;2023-02-24T18:28:29;6.87;;;2.83;;
17917;SDS011;9084;50.956;3.106;2023-02-24T18:30:56;7.03;;;2.40;;
17917;SDS011;9084;50.956;3.106;2023-02-24T18:33:26;6.27;;;2.40;;